sensor_id;sensor_type;location;lat;lon;timestamp;P1;durP1;ratioP1;P2;durP2;ratioP2
28836;SDS011;50669;50.982;11.022;2023-02-19T00:00:58;5.80;;;3.65;;
28836;SDS011;50669;50.982;11.022;2023-02-19T00:03:28;4.43;;;2.83;;
28836;SDS011;50669;50.982;11.022;2023-02-19T00:05:53;3.20;;;1.73;;
28836;SDS011;50669;50.982;11.022;2023-02-19T00:08:25;2.72;;;0.98;;
28836;SDS011;50669;50.982;11.022;2023-02-19T00:10:50;2.10;;;0.90;;
28836;SDS011;50669;50.982;11.022;2023-02-19T00:13:18;1.92;;;0.85;;
28836;SDS011;50669;50.982;11.022;2023-02-19T00:15:44;1.90;;;1.00;;
28836;SDS011;50669;50.982;11.022;2023-02-19T00:18:12;1.63;;;0.90;;
28836;SDS011;50669;50.982;11.022;2023-02-19T00:20:40;2.22;;;0.88;;
28836;SDS011;50669;50.982;11.022;2023-02-19T00:23:10;1.80;;;0.90;;
28836;SDS011;50669;50.982;11.022;2023-02-19T00:25:36;1.95;;;1.00;;
28836;SDS011;50669;50.982;11.022;2023-02-19T00:28:02;1.70;;;1.05;;
28836;SDS011;50669;50.982;11.022;2023-02-19T00:30:28;1.65;;;1.00;;
28836;SDS011;50669;50.982;11.022;2023-02-19T00:32:53;2.15;;;0.90;;
28836;SDS011;50669;50.982;11.022;2023-02-19T00:35:19;1.33;;;0.90;;
28836;SDS011;50669;50.982;11.022;2023-02-19T00:37:45;1.60;;;1.00;;
28836;SDS011;50669;50.982;11.022;2023-02-19T00:40:11;1.60;;;1.27;;
28836;SDS011;50669;50.982;11.022;2023-02-19T00:42:39;1.95;;;1.27;;
28836;SDS011;50669;50.982;11.022;2023-02-19T00:45:07;2.17;;;1.30;;
28836;SDS011;50669;50.982;11.022;2023-02-19T00:47:35;2.78;;;1.13;;
28836;SDS011;50669;50.982;11.022;2023-02-19T00:50:01;2.83;;;1.70;;
28836;SDS011;50669;50.982;11.022;2023-02-19T00:52:26;1.35;;;1.10;;
28836;SDS011;50669;50.982;11.022;2023-02-19T00:54:52;1.50;;;1.10;;
28836;SDS011;50669;50.982;11.022;2023-02-19T00:57:18;1.70;;;1.45;;
28836;SDS011;50669;50.982;11.022;2023-02-19T00:59:43;1.95;;;1.40;;
28836;SDS011;50669;50.982;11.022;2023-02-19T01:02:09;2.08;;;1.50;;
28836;SDS011;50669;50.982;11.022;2023-02-19T01:04:34;1.50;;;1.20;;
28836;SDS011;50669;50.982;11.022;2023-02-19T01:07:02;2.53;;;1.40;;
28836;SDS011;50669;50.982;11.022;2023-02-19T01:09:28;2.00;;;1.30;;
28836;SDS011;50669;50.982;11.022;2023-02-19T01:11:53;1.50;;;0.90;;
28836;SDS011;50669;50.982;11.022;2023-02-19T01:14:19;1.10;;;0.85;;
28836;SDS011;50669;50.982;11.022;2023-02-19T01:16:45;1.58;;;0.77;;
28836;SDS011;50669;50.982;11.022;2023-02-19T01:19:10;1.55;;;1.00;;
28836;SDS011;50669;50.982;11.022;2023-02-19T01:21:36;1.23;;;0.80;;
28836;SDS011;50669;50.982;11.022;2023-02-19T01:24:03;0.70;;;0.70;;
28836;SDS011;50669;50.982;11.022;2023-02-19T01:26:30;2.15;;;0.65;;
28836;SDS011;50669;50.982;11.022;2023-02-19T01:28:57;1.15;;;0.52;;
28836;SDS011;50669;50.982;11.022;2023-02-19T01:31:24;1.85;;;0.43;;
28836;SDS011;50669;50.982;11.022;2023-02-19T01:33:51;0.50;;;0.50;;
28836;SDS011;50669;50.982;11.022;2023-02-19T01:38:51;0.70;;;0.45;;
28836;SDS011;50669;50.982;11.022;2023-02-19T01:41:21;0.90;;;0.57;;
28836;SDS011;50669;50.982;11.022;2023-02-19T01:46:36;0.73;;;0.63;;
28836;SDS011;50669;50.982;11.022;2023-02-19T01:49:06;1.30;;;0.90;;
28836;SDS011;50669;50.982;11.022;2023-02-19T01:51:43;0.75;;;0.60;;
28836;SDS011;50669;50.982;11.022;2023-02-19T01:54:12;0.85;;;0.75;;
28836;SDS011;50669;50.982;11.022;2023-02-19T01:56:41;1.13;;;0.88;;
28836;SDS011;50669;50.982;11.022;2023-02-19T01:59:09;1.10;;;0.95;;
28836;SDS011;50669;50.982;11.022;2023-02-19T02:01:36;1.25;;;0.85;;
28836;SDS011;50669;50.982;11.022;2023-02-19T02:04:06;1.77;;;1.20;;
28836;SDS011;50669;50.982;11.022;2023-02-19T02:06:54;1.15;;;0.85;;
28836;SDS011;50669;50.982;11.022;2023-02-19T02:09:22;1.55;;;0.90;;
28836;SDS011;50669;50.982;11.022;2023-02-19T02:12:09;1.30;;;1.00;;
28836;SDS011;50669;50.982;11.022;2023-02-19T02:14:38;1.20;;;0.90;;
28836;SDS011;50669;50.982;11.022;2023-02-19T02:22:43;1.20;;;1.10;;
28836;SDS011;50669;50.982;11.022;2023-02-19T02:28:05;1.80;;;1.45;;
28836;SDS011;50669;50.982;11.022;2023-02-19T02:30:42;1.98;;;1.40;;
28836;SDS011;50669;50.982;11.022;2023-02-19T02:36:09;1.88;;;1.00;;
28836;SDS011;50669;50.982;11.022;2023-02-19T02:38:48;1.75;;;1.33;;
28836;SDS011;50669;50.982;11.022;2023-02-19T02:41:16;1.77;;;1.27;;
28836;SDS011;50669;50.982;11.022;2023-02-19T02:43:43;1.60;;;0.98;;
28836;SDS011;50669;50.982;11.022;2023-02-19T02:46:12;1.63;;;1.30;;
28836;SDS011;50669;50.982;11.022;2023-02-19T02:48:47;1.35;;;1.25;;
28836;SDS011;50669;50.982;11.022;2023-02-19T02:51:26;1.20;;;0.85;;
28836;SDS011;50669;50.982;11.022;2023-02-19T02:53:56;1.15;;;0.95;;
28836;SDS011;50669;50.982;11.022;2023-02-19T02:56:50;1.15;;;0.80;;
28836;SDS011;50669;50.982;11.022;2023-02-19T02:59:20;1.15;;;1.00;;
28836;SDS011;50669;50.982;11.022;2023-02-19T03:07:23;0.63;;;0.52;;
28836;SDS011;50669;50.982;11.022;2023-02-19T03:09:53;0.90;;;0.80;;
28836;SDS011;50669;50.982;11.022;2023-02-19T03:12:24;0.90;;;0.60;;
28836;SDS011;50669;50.982;11.022;2023-02-19T03:15:11;1.55;;;0.70;;
28836;SDS011;50669;50.982;11.022;2023-02-19T03:18:01;0.82;;;0.60;;
28836;SDS011;50669;50.982;11.022;2023-02-19T03:20:54;0.90;;;0.60;;
28836;SDS011;50669;50.982;11.022;2023-02-19T03:23:22;0.75;;;0.50;;
28836;SDS011;50669;50.982;11.022;2023-02-19T03:26:12;0.30;;;0.30;;
28836;SDS011;50669;50.982;11.022;2023-02-19T03:28:41;0.60;;;0.50;;
28836;SDS011;50669;50.982;11.022;2023-02-19T03:31:28;0.68;;;0.40;;
28836;SDS011;50669;50.982;11.022;2023-02-19T03:33:56;0.60;;;0.50;;
28836;SDS011;50669;50.982;11.022;2023-02-19T03:36:26;1.35;;;0.60;;
28836;SDS011;50669;50.982;11.022;2023-02-19T03:39:04;0.95;;;0.70;;
28836;SDS011;50669;50.982;11.022;2023-02-19T03:41:47;1.02;;;0.70;;
28836;SDS011;50669;50.982;11.022;2023-02-19T03:44:24;1.08;;;0.63;;
28836;SDS011;50669;50.982;11.022;2023-02-19T03:47:15;0.80;;;0.60;;
28836;SDS011;50669;50.982;11.022;2023-02-19T03:50:35;0.88;;;0.70;;
28836;SDS011;50669;50.982;11.022;2023-02-19T03:53:28;1.33;;;0.90;;
28836;SDS011;50669;50.982;11.022;2023-02-19T03:56:04;1.40;;;1.10;;
28836;SDS011;50669;50.982;11.022;2023-02-19T04:01:45;2.05;;;1.30;;
28836;SDS011;50669;50.982;11.022;2023-02-19T04:04:23;1.45;;;1.15;;
28836;SDS011;50669;50.982;11.022;2023-02-19T04:06:56;1.30;;;1.02;;
28836;SDS011;50669;50.982;11.022;2023-02-19T04:09:23;1.70;;;1.15;;
28836;SDS011;50669;50.982;11.022;2023-02-19T04:14:28;2.40;;;1.42;;
28836;SDS011;50669;50.982;11.022;2023-02-19T04:17:35;1.17;;;1.05;;
28836;SDS011;50669;50.982;11.022;2023-02-19T04:20:06;2.05;;;1.50;;
28836;SDS011;50669;50.982;11.022;2023-02-19T04:22:34;3.70;;;1.33;;
28836;SDS011;50669;50.982;11.022;2023-02-19T04:25:05;1.33;;;1.15;;
28836;SDS011;50669;50.982;11.022;2023-02-19T04:27:35;3.13;;;1.58;;
28836;SDS011;50669;50.982;11.022;2023-02-19T04:30:10;2.20;;;1.30;;
28836;SDS011;50669;50.982;11.022;2023-02-19T04:32:37;2.08;;;1.40;;
28836;SDS011;50669;50.982;11.022;2023-02-19T04:35:02;1.90;;;1.40;;
28836;SDS011;50669;50.982;11.022;2023-02-19T04:37:28;1.83;;;1.30;;
28836;SDS011;50669;50.982;11.022;2023-02-19T04:39:54;1.90;;;1.30;;
28836;SDS011;50669;50.982;11.022;2023-02-19T04:42:25;2.15;;;1.30;;
28836;SDS011;50669;50.982;11.022;2023-02-19T04:44:55;1.65;;;1.25;;
28836;SDS011;50669;50.982;11.022;2023-02-19T04:47:23;1.83;;;1.23;;
28836;SDS011;50669;50.982;11.022;2023-02-19T04:49:48;1.52;;;1.20;;
28836;SDS011;50669;50.982;11.022;2023-02-19T04:52:14;2.90;;;1.15;;
28836;SDS011;50669;50.982;11.022;2023-02-19T04:54:40;1.98;;;1.30;;
28836;SDS011;50669;50.982;11.022;2023-02-19T04:57:08;1.35;;;0.98;;
28836;SDS011;50669;50.982;11.022;2023-02-19T04:59:33;1.58;;;0.90;;
28836;SDS011;50669;50.982;11.022;2023-02-19T05:01:59;1.67;;;1.02;;
28836;SDS011;50669;50.982;11.022;2023-02-19T05:04:27;1.80;;;1.23;;
28836;SDS011;50669;50.982;11.022;2023-02-19T05:06:53;2.78;;;1.10;;
28836;SDS011;50669;50.982;11.022;2023-02-19T05:09:18;2.30;;;1.42;;
28836;SDS011;50669;50.982;11.022;2023-02-19T05:11:44;3.92;;;1.38;;
28836;SDS011;50669;50.982;11.022;2023-02-19T05:14:12;2.55;;;1.35;;
28836;SDS011;50669;50.982;11.022;2023-02-19T05:16:37;1.75;;;1.48;;
28836;SDS011;50669;50.982;11.022;2023-02-19T05:19:05;4.32;;;1.40;;
28836;SDS011;50669;50.982;11.022;2023-02-19T05:21:33;3.25;;;1.48;;
28836;SDS011;50669;50.982;11.022;2023-02-19T05:23:58;1.48;;;1.15;;
28836;SDS011;50669;50.982;11.022;2023-02-19T05:26:24;4.05;;;1.40;;
28836;SDS011;50669;50.982;11.022;2023-02-19T05:28:51;2.50;;;1.65;;
28836;SDS011;50669;50.982;11.022;2023-02-19T05:31:19;2.75;;;1.58;;
28836;SDS011;50669;50.982;11.022;2023-02-19T05:33:46;2.38;;;1.70;;
28836;SDS011;50669;50.982;11.022;2023-02-19T05:36:15;3.47;;;1.95;;
28836;SDS011;50669;50.982;11.022;2023-02-19T05:38:42;7.10;;;2.42;;
28836;SDS011;50669;50.982;11.022;2023-02-19T05:43:38;6.00;;;3.50;;
28836;SDS011;50669;50.982;11.022;2023-02-19T05:46:05;5.35;;;2.78;;
28836;SDS011;50669;50.982;11.022;2023-02-19T05:48:34;4.53;;;3.10;;
28836;SDS011;50669;50.982;11.022;2023-02-19T05:51:01;4.55;;;2.47;;
28836;SDS011;50669;50.982;11.022;2023-02-19T05:53:30;3.95;;;2.75;;
28836;SDS011;50669;50.982;11.022;2023-02-19T05:55:59;4.95;;;2.88;;
28836;SDS011;50669;50.982;11.022;2023-02-19T05:58:25;5.65;;;2.92;;
28836;SDS011;50669;50.982;11.022;2023-02-19T06:00:51;4.40;;;2.63;;
28836;SDS011;50669;50.982;11.022;2023-02-19T06:03:17;5.20;;;2.65;;
28836;SDS011;50669;50.982;11.022;2023-02-19T06:05:42;4.05;;;2.42;;
28836;SDS011;50669;50.982;11.022;2023-02-19T06:08:09;4.72;;;2.88;;
28836;SDS011;50669;50.982;11.022;2023-02-19T06:10:37;5.38;;;2.78;;
28836;SDS011;50669;50.982;11.022;2023-02-19T06:13:09;3.88;;;2.33;;
28836;SDS011;50669;50.982;11.022;2023-02-19T06:15:35;4.60;;;2.05;;
28836;SDS011;50669;50.982;11.022;2023-02-19T06:18:06;2.60;;;1.50;;
28836;SDS011;50669;50.982;11.022;2023-02-19T06:20:34;2.55;;;1.30;;
28836;SDS011;50669;50.982;11.022;2023-02-19T06:23:04;1.95;;;1.05;;
28836;SDS011;50669;50.982;11.022;2023-02-19T06:25:30;1.88;;;0.95;;
28836;SDS011;50669;50.982;11.022;2023-02-19T06:27:55;2.53;;;0.95;;
28836;SDS011;50669;50.982;11.022;2023-02-19T06:30:21;3.60;;;1.10;;
28836;SDS011;50669;50.982;11.022;2023-02-19T06:32:49;1.45;;;0.73;;
28836;SDS011;50669;50.982;11.022;2023-02-19T06:35:16;1.27;;;0.63;;
28836;SDS011;50669;50.982;11.022;2023-02-19T06:37:44;2.78;;;0.70;;
28836;SDS011;50669;50.982;11.022;2023-02-19T06:40:13;1.70;;;0.47;;
28836;SDS011;50669;50.982;11.022;2023-02-19T06:42:41;1.08;;;0.50;;
28836;SDS011;50669;50.982;11.022;2023-02-19T06:45:07;0.98;;;0.40;;
28836;SDS011;50669;50.982;11.022;2023-02-19T06:47:33;0.30;;;0.25;;
28836;SDS011;50669;50.982;11.022;2023-02-19T06:49:59;0.95;;;0.70;;
28836;SDS011;50669;50.982;11.022;2023-02-19T06:52:27;1.58;;;0.40;;
28836;SDS011;50669;50.982;11.022;2023-02-19T06:54:55;0.57;;;0.45;;
28836;SDS011;50669;50.982;11.022;2023-02-19T06:57:23;0.98;;;0.40;;
28836;SDS011;50669;50.982;11.022;2023-02-19T06:59:51;0.95;;;0.50;;
28836;SDS011;50669;50.982;11.022;2023-02-19T07:02:19;0.65;;;0.40;;
28836;SDS011;50669;50.982;11.022;2023-02-19T07:04:45;0.32;;;0.32;;
28836;SDS011;50669;50.982;11.022;2023-02-19T07:07:13;1.15;;;0.63;;
28836;SDS011;50669;50.982;11.022;2023-02-19T07:09:38;0.80;;;0.43;;
28836;SDS011;50669;50.982;11.022;2023-02-19T07:12:04;0.70;;;0.40;;
28836;SDS011;50669;50.982;11.022;2023-02-19T07:14:30;1.85;;;0.50;;
28836;SDS011;50669;50.982;11.022;2023-02-19T07:16:56;2.05;;;0.90;;
28836;SDS011;50669;50.982;11.022;2023-02-19T07:19:21;0.50;;;0.40;;
28836;SDS011;50669;50.982;11.022;2023-02-19T07:21:47;1.80;;;1.02;;
28836;SDS011;50669;50.982;11.022;2023-02-19T07:24:15;5.32;;;2.00;;
28836;SDS011;50669;50.982;11.022;2023-02-19T07:26:40;1.38;;;0.70;;
28836;SDS011;50669;50.982;11.022;2023-02-19T07:29:08;1.75;;;0.40;;
28836;SDS011;50669;50.982;11.022;2023-02-19T07:31:34;1.20;;;0.60;;
28836;SDS011;50669;50.982;11.022;2023-02-19T07:34:04;1.40;;;0.50;;
28836;SDS011;50669;50.982;11.022;2023-02-19T07:36:31;0.57;;;0.50;;
28836;SDS011;50669;50.982;11.022;2023-02-19T07:38:59;1.83;;;0.65;;
28836;SDS011;50669;50.982;11.022;2023-02-19T07:41:25;0.88;;;0.75;;
28836;SDS011;50669;50.982;11.022;2023-02-19T07:43:51;0.63;;;0.43;;
28836;SDS011;50669;50.982;11.022;2023-02-19T07:46:22;0.82;;;0.57;;
28836;SDS011;50669;50.982;11.022;2023-02-19T07:48:51;1.58;;;0.88;;
28836;SDS011;50669;50.982;11.022;2023-02-19T07:51:17;1.85;;;1.17;;
28836;SDS011;50669;50.982;11.022;2023-02-19T07:53:46;1.55;;;0.90;;
28836;SDS011;50669;50.982;11.022;2023-02-19T07:56:16;1.00;;;0.50;;
28836;SDS011;50669;50.982;11.022;2023-02-19T07:58:44;0.45;;;0.45;;
28836;SDS011;50669;50.982;11.022;2023-02-19T08:01:15;1.83;;;0.50;;
28836;SDS011;50669;50.982;11.022;2023-02-19T08:04:06;1.20;;;0.60;;
28836;SDS011;50669;50.982;11.022;2023-02-19T08:06:32;0.82;;;0.50;;
28836;SDS011;50669;50.982;11.022;2023-02-19T08:08:57;1.45;;;1.00;;
28836;SDS011;50669;50.982;11.022;2023-02-19T08:11:23;1.08;;;0.68;;
28836;SDS011;50669;50.982;11.022;2023-02-19T08:14:07;1.10;;;0.80;;
28836;SDS011;50669;50.982;11.022;2023-02-19T08:16:35;1.45;;;0.80;;
28836;SDS011;50669;50.982;11.022;2023-02-19T08:19:03;2.85;;;1.50;;
28836;SDS011;50669;50.982;11.022;2023-02-19T08:21:36;2.15;;;1.50;;
28836;SDS011;50669;50.982;11.022;2023-02-19T08:24:04;2.28;;;1.30;;
28836;SDS011;50669;50.982;11.022;2023-02-19T08:26:31;2.47;;;1.10;;
28836;SDS011;50669;50.982;11.022;2023-02-19T08:28:57;2.53;;;1.30;;
28836;SDS011;50669;50.982;11.022;2023-02-19T08:31:23;2.40;;;1.38;;
28836;SDS011;50669;50.982;11.022;2023-02-19T08:33:53;2.70;;;1.05;;
28836;SDS011;50669;50.982;11.022;2023-02-19T08:36:19;2.03;;;1.20;;
28836;SDS011;50669;50.982;11.022;2023-02-19T08:38:47;2.83;;;1.50;;
28836;SDS011;50669;50.982;11.022;2023-02-19T08:41:15;2.85;;;1.52;;
28836;SDS011;50669;50.982;11.022;2023-02-19T08:43:41;2.80;;;1.75;;
28836;SDS011;50669;50.982;11.022;2023-02-19T08:46:07;2.60;;;1.52;;
28836;SDS011;50669;50.982;11.022;2023-02-19T08:48:34;3.88;;;2.08;;
28836;SDS011;50669;50.982;11.022;2023-02-19T08:51:03;3.85;;;2.30;;
28836;SDS011;50669;50.982;11.022;2023-02-19T08:53:32;3.45;;;2.00;;
28836;SDS011;50669;50.982;11.022;2023-02-19T08:56:08;3.05;;;2.08;;
28836;SDS011;50669;50.982;11.022;2023-02-19T08:58:35;4.07;;;2.13;;
28836;SDS011;50669;50.982;11.022;2023-02-19T09:01:02;3.30;;;2.08;;
28836;SDS011;50669;50.982;11.022;2023-02-19T09:03:31;4.35;;;2.17;;
28836;SDS011;50669;50.982;11.022;2023-02-19T09:05:57;3.38;;;1.92;;
28836;SDS011;50669;50.982;11.022;2023-02-19T09:08:22;2.88;;;1.83;;
28836;SDS011;50669;50.982;11.022;2023-02-19T09:11:01;3.85;;;1.88;;
28836;SDS011;50669;50.982;11.022;2023-02-19T09:13:31;4.63;;;1.85;;
28836;SDS011;50669;50.982;11.022;2023-02-19T09:15:56;3.70;;;1.83;;
28836;SDS011;50669;50.982;11.022;2023-02-19T09:18:24;4.88;;;2.25;;
28836;SDS011;50669;50.982;11.022;2023-02-19T09:20:50;4.43;;;2.97;;
28836;SDS011;50669;50.982;11.022;2023-02-19T09:23:16;3.00;;;2.50;;
28836;SDS011;50669;50.982;11.022;2023-02-19T09:25:42;4.75;;;2.50;;
28836;SDS011;50669;50.982;11.022;2023-02-19T09:28:07;2.63;;;1.02;;
28836;SDS011;50669;50.982;11.022;2023-02-19T09:30:33;1.35;;;0.95;;
28836;SDS011;50669;50.982;11.022;2023-02-19T09:33:03;2.10;;;1.00;;
28836;SDS011;50669;50.982;11.022;2023-02-19T09:35:29;1.75;;;0.90;;
28836;SDS011;50669;50.982;11.022;2023-02-19T09:37:55;2.55;;;0.93;;
28836;SDS011;50669;50.982;11.022;2023-02-19T09:40:24;1.80;;;1.00;;
28836;SDS011;50669;50.982;11.022;2023-02-19T09:42:50;2.00;;;1.00;;
28836;SDS011;50669;50.982;11.022;2023-02-19T09:45:20;3.53;;;1.20;;
28836;SDS011;50669;50.982;11.022;2023-02-19T09:47:54;2.50;;;1.20;;
28836;SDS011;50669;50.982;11.022;2023-02-19T09:50:22;3.30;;;1.90;;
28836;SDS011;50669;50.982;11.022;2023-02-19T09:53:01;2.10;;;1.42;;
28836;SDS011;50669;50.982;11.022;2023-02-19T09:55:33;3.03;;;1.50;;
28836;SDS011;50669;50.982;11.022;2023-02-19T10:01:08;1.70;;;1.00;;
28836;SDS011;50669;50.982;11.022;2023-02-19T10:03:36;2.40;;;1.65;;
28836;SDS011;50669;50.982;11.022;2023-02-19T10:06:10;2.72;;;1.27;;
28836;SDS011;50669;50.982;11.022;2023-02-19T10:08:45;2.75;;;1.70;;
28836;SDS011;50669;50.982;11.022;2023-02-19T10:11:12;2.08;;;1.42;;
28836;SDS011;50669;50.982;11.022;2023-02-19T10:13:43;3.92;;;1.70;;
28836;SDS011;50669;50.982;11.022;2023-02-19T10:16:24;2.35;;;1.33;;
28836;SDS011;50669;50.982;11.022;2023-02-19T10:18:52;3.42;;;2.20;;
28836;SDS011;50669;50.982;11.022;2023-02-19T10:21:24;3.00;;;2.00;;
28836;SDS011;50669;50.982;11.022;2023-02-19T10:23:53;4.25;;;1.90;;
28836;SDS011;50669;50.982;11.022;2023-02-19T10:26:23;2.55;;;1.48;;
28836;SDS011;50669;50.982;11.022;2023-02-19T10:28:49;3.50;;;1.65;;
28836;SDS011;50669;50.982;11.022;2023-02-19T10:31:15;2.92;;;1.80;;
28836;SDS011;50669;50.982;11.022;2023-02-19T10:33:50;4.30;;;2.00;;
28836;SDS011;50669;50.982;11.022;2023-02-19T10:36:39;4.25;;;1.92;;
28836;SDS011;50669;50.982;11.022;2023-02-19T10:41:49;3.75;;;1.23;;
28836;SDS011;50669;50.982;11.022;2023-02-19T10:44:21;2.63;;;1.30;;
28836;SDS011;50669;50.982;11.022;2023-02-19T10:54:42;3.25;;;1.52;;
28836;SDS011;50669;50.982;11.022;2023-02-19T11:00:36;2.35;;;1.42;;
28836;SDS011;50669;50.982;11.022;2023-02-19T11:02:50;4.60;;;2.55;;
28836;SDS011;50669;50.982;11.022;2023-02-19T11:05:38;2.53;;;1.50;;
28836;SDS011;50669;50.982;11.022;2023-02-19T11:08:14;3.55;;;1.58;;
28836;SDS011;50669;50.982;11.022;2023-02-19T11:10:47;3.10;;;2.10;;
28836;SDS011;50669;50.982;11.022;2023-02-19T11:13:19;2.63;;;1.65;;
28836;SDS011;50669;50.982;11.022;2023-02-19T11:16:01;1.88;;;1.42;;
28836;SDS011;50669;50.982;11.022;2023-02-19T11:18:30;2.38;;;1.40;;
28836;SDS011;50669;50.982;11.022;2023-02-19T11:20:57;4.15;;;1.95;;
28836;SDS011;50669;50.982;11.022;2023-02-19T11:23:33;2.63;;;1.77;;
28836;SDS011;50669;50.982;11.022;2023-02-19T11:26:00;3.95;;;1.80;;
28836;SDS011;50669;50.982;11.022;2023-02-19T11:28:30;2.50;;;1.75;;
28836;SDS011;50669;50.982;11.022;2023-02-19T11:31:13;3.08;;;1.85;;
28836;SDS011;50669;50.982;11.022;2023-02-19T11:42:01;2.80;;;1.38;;
28836;SDS011;50669;50.982;11.022;2023-02-19T11:53:11;2.72;;;1.85;;
28836;SDS011;50669;50.982;11.022;2023-02-19T11:55:55;2.63;;;1.60;;
28836;SDS011;50669;50.982;11.022;2023-02-19T12:04:02;1.90;;;1.40;;
28836;SDS011;50669;50.982;11.022;2023-02-19T12:15:12;2.35;;;1.40;;
28836;SDS011;50669;50.982;11.022;2023-02-19T12:20:42;1.65;;;1.10;;
28836;SDS011;50669;50.982;11.022;2023-02-19T12:28:50;1.38;;;0.98;;
28836;SDS011;50669;50.982;11.022;2023-02-19T12:31:36;1.20;;;0.90;;
28836;SDS011;50669;50.982;11.022;2023-02-19T12:37:17;1.05;;;0.70;;
28836;SDS011;50669;50.982;11.022;2023-02-19T12:40:16;1.42;;;0.85;;
28836;SDS011;50669;50.982;11.022;2023-02-19T12:43:08;1.40;;;0.77;;
28836;SDS011;50669;50.982;11.022;2023-02-19T12:50:57;1.23;;;0.75;;
28836;SDS011;50669;50.982;11.022;2023-02-19T12:53:53;1.38;;;0.70;;
28836;SDS011;50669;50.982;11.022;2023-02-19T12:56:21;1.35;;;0.90;;
28836;SDS011;50669;50.982;11.022;2023-02-19T12:59:09;2.80;;;0.90;;
28836;SDS011;50669;50.982;11.022;2023-02-19T13:01:49;1.27;;;0.90;;
28836;SDS011;50669;50.982;11.022;2023-02-19T13:07:12;3.33;;;2.17;;
28836;SDS011;50669;50.982;11.022;2023-02-19T13:12:18;2.20;;;0.88;;
28836;SDS011;50669;50.982;11.022;2023-02-19T13:14:54;2.13;;;1.30;;
28836;SDS011;50669;50.982;11.022;2023-02-19T13:17:44;4.97;;;3.03;;
28836;SDS011;50669;50.982;11.022;2023-02-19T13:20:17;1.15;;;0.70;;
28836;SDS011;50669;50.982;11.022;2023-02-19T13:37:09;11.43;;;5.78;;
28836;SDS011;50669;50.982;11.022;2023-02-19T13:39:36;6.00;;;3.22;;
28836;SDS011;50669;50.982;11.022;2023-02-19T13:42:11;2.22;;;1.13;;
28836;SDS011;50669;50.982;11.022;2023-02-19T13:44:49;2.08;;;0.90;;
28836;SDS011;50669;50.982;11.022;2023-02-19T13:50:33;16.38;;;6.68;;
28836;SDS011;50669;50.982;11.022;2023-02-19T13:52:59;4.47;;;2.10;;
28836;SDS011;50669;50.982;11.022;2023-02-19T14:01:06;13.73;;;5.20;;
28836;SDS011;50669;50.982;11.022;2023-02-19T14:06:07;2.00;;;0.90;;
28836;SDS011;50669;50.982;11.022;2023-02-19T14:08:53;0.93;;;0.77;;
28836;SDS011;50669;50.982;11.022;2023-02-19T14:14:23;4.57;;;2.17;;
28836;SDS011;50669;50.982;11.022;2023-02-19T14:19:44;0.90;;;0.70;;
28836;SDS011;50669;50.982;11.022;2023-02-19T14:28:33;1.73;;;0.80;;
28836;SDS011;50669;50.982;11.022;2023-02-19T14:33:55;1.90;;;1.20;;
28836;SDS011;50669;50.982;11.022;2023-02-19T14:42:00;2.10;;;1.38;;
28836;SDS011;50669;50.982;11.022;2023-02-19T14:44:36;2.78;;;1.10;;
28836;SDS011;50669;50.982;11.022;2023-02-19T14:47:15;2.88;;;1.20;;
28836;SDS011;50669;50.982;11.022;2023-02-19T14:49:45;1.83;;;1.27;;
28836;SDS011;50669;50.982;11.022;2023-02-19T14:57:24;3.08;;;1.15;;
28836;SDS011;50669;50.982;11.022;2023-02-19T14:59:57;2.03;;;1.27;;
28836;SDS011;50669;50.982;11.022;2023-02-19T15:02:29;4.82;;;2.10;;
28836;SDS011;50669;50.982;11.022;2023-02-19T15:04:58;1.98;;;1.40;;
28836;SDS011;50669;50.982;11.022;2023-02-19T15:07:38;3.20;;;1.50;;
28836;SDS011;50669;50.982;11.022;2023-02-19T15:10:08;5.32;;;1.65;;
28836;SDS011;50669;50.982;11.022;2023-02-19T15:12:44;8.40;;;2.30;;
28836;SDS011;50669;50.982;11.022;2023-02-19T15:15:21;4.00;;;1.30;;
28836;SDS011;50669;50.982;11.022;2023-02-19T15:17:53;2.83;;;1.60;;
28836;SDS011;50669;50.982;11.022;2023-02-19T15:20:22;3.00;;;1.52;;
28836;SDS011;50669;50.982;11.022;2023-02-19T15:22:52;7.43;;;1.90;;
28836;SDS011;50669;50.982;11.022;2023-02-19T15:25:21;5.05;;;1.63;;
28836;SDS011;50669;50.982;11.022;2023-02-19T15:27:50;3.67;;;1.42;;
28836;SDS011;50669;50.982;11.022;2023-02-19T15:30:22;3.25;;;1.30;;
28836;SDS011;50669;50.982;11.022;2023-02-19T15:32:57;5.55;;;2.05;;
28836;SDS011;50669;50.982;11.022;2023-02-19T15:35:26;4.07;;;1.88;;
28836;SDS011;50669;50.982;11.022;2023-02-19T15:37:59;4.35;;;1.65;;
28836;SDS011;50669;50.982;11.022;2023-02-19T15:40:28;3.45;;;1.60;;
28836;SDS011;50669;50.982;11.022;2023-02-19T15:42:57;3.05;;;1.60;;
28836;SDS011;50669;50.982;11.022;2023-02-19T15:45:25;4.05;;;1.83;;
28836;SDS011;50669;50.982;11.022;2023-02-19T15:48:07;2.70;;;1.83;;
28836;SDS011;50669;50.982;11.022;2023-02-19T15:50:46;3.50;;;2.10;;
28836;SDS011;50669;50.982;11.022;2023-02-19T15:58:20;3.55;;;2.53;;
28836;SDS011;50669;50.982;11.022;2023-02-19T16:03:28;2.83;;;1.95;;
28836;SDS011;50669;50.982;11.022;2023-02-19T16:08:35;3.67;;;2.40;;
28836;SDS011;50669;50.982;11.022;2023-02-19T16:11:05;3.90;;;2.72;;
28836;SDS011;50669;50.982;11.022;2023-02-19T16:13:52;3.63;;;2.47;;
28836;SDS011;50669;50.982;11.022;2023-02-19T16:16:38;4.18;;;3.08;;
28836;SDS011;50669;50.982;11.022;2023-02-19T16:19:07;13.02;;;7.20;;
28836;SDS011;50669;50.982;11.022;2023-02-19T16:21:33;7.28;;;3.42;;
28836;SDS011;50669;50.982;11.022;2023-02-19T16:26:44;9.00;;;5.32;;
28836;SDS011;50669;50.982;11.022;2023-02-19T16:29:31;5.60;;;4.57;;
28836;SDS011;50669;50.982;11.022;2023-02-19T16:32:01;6.15;;;4.43;;
28836;SDS011;50669;50.982;11.022;2023-02-19T16:34:42;3.83;;;2.65;;
28836;SDS011;50669;50.982;11.022;2023-02-19T16:42:33;4.75;;;3.15;;
28836;SDS011;50669;50.982;11.022;2023-02-19T16:45:03;4.93;;;2.92;;
28836;SDS011;50669;50.982;11.022;2023-02-19T16:47:34;4.70;;;3.33;;
28836;SDS011;50669;50.982;11.022;2023-02-19T16:50:16;6.53;;;4.20;;
28836;SDS011;50669;50.982;11.022;2023-02-19T16:52:50;5.63;;;3.08;;
28836;SDS011;50669;50.982;11.022;2023-02-19T16:55:20;5.80;;;3.53;;
28836;SDS011;50669;50.982;11.022;2023-02-19T16:57:51;4.50;;;2.65;;
28836;SDS011;50669;50.982;11.022;2023-02-19T17:00:18;3.50;;;2.60;;
28836;SDS011;50669;50.982;11.022;2023-02-19T17:02:54;3.22;;;2.40;;
28836;SDS011;50669;50.982;11.022;2023-02-19T17:05:27;5.57;;;2.85;;
28836;SDS011;50669;50.982;11.022;2023-02-19T17:07:56;6.07;;;2.80;;
28836;SDS011;50669;50.982;11.022;2023-02-19T17:10:23;5.07;;;2.13;;
28836;SDS011;50669;50.982;11.022;2023-02-19T17:12:50;4.32;;;2.00;;
28836;SDS011;50669;50.982;11.022;2023-02-19T17:15:17;6.28;;;3.80;;
28836;SDS011;50669;50.982;11.022;2023-02-19T17:17:47;6.10;;;2.40;;
28836;SDS011;50669;50.982;11.022;2023-02-19T17:20:17;3.65;;;2.00;;
28836;SDS011;50669;50.982;11.022;2023-02-19T17:22:48;4.65;;;1.80;;
28836;SDS011;50669;50.982;11.022;2023-02-19T17:25:16;3.70;;;1.33;;
28836;SDS011;50669;50.982;11.022;2023-02-19T17:27:41;2.90;;;1.50;;
28836;SDS011;50669;50.982;11.022;2023-02-19T17:30:11;5.18;;;2.85;;
28836;SDS011;50669;50.982;11.022;2023-02-19T17:32:43;7.40;;;2.05;;
28836;SDS011;50669;50.982;11.022;2023-02-19T17:35:09;6.43;;;2.60;;
28836;SDS011;50669;50.982;11.022;2023-02-19T17:37:34;4.10;;;1.80;;
28836;SDS011;50669;50.982;11.022;2023-02-19T17:40:00;2.55;;;0.90;;
28836;SDS011;50669;50.982;11.022;2023-02-19T17:42:26;2.42;;;1.30;;
28836;SDS011;50669;50.982;11.022;2023-02-19T17:44:52;1.85;;;1.38;;